Lydia, Louisiana
Current Conditions -  °F | °C
As of 9:13 PM on Thursday 18 Dec 2014 (Local Time) from KARA Reporting Station
Overcast Overcast  
Wind Chill: 61°   Ceiling: 1400
Heat Index: 61°   Visibility: 10mi
Dew Point: 55°   Wind: 9mph
Humidity: 81%   Direction: 60°ENE
Pressure: 30.11"   Gusts: NA
Location:  29.92°N, 91.78°W
Report Text: KARA 190313Z AUTO 06008KT 10SM OVC014 16/13 A3011 RMK AO2 T01610128
Loading
Personal Weather Stations






























Interactive Weather Map New forecast layout! Learn more

10-Day Weather Forecast

Advertisements
Track Severe Weather on mobile